Tunnel Hill, GA

14:19 EDT, 02. August, 2015 (GMT -0400)
KGADALTO11 | | Change Station
CLOSE
Current Station
Personal Weather Stations
Location: Dalton, GA
Böyiklik: 790 ft
Nearby Weather Stations

Elev 790 ft 34.81 °N, 85.00 °W | Updated 9 minutes ago

Ayaz
Ayaz
88.5 °F
Feels Like 92 °F
N
0.0
Cel Üzgärüçän Cel from ÇKÇ
Gusts 5.0 mil/seğ

Bogön
High -- | Low -- °F
--% Chance of Precip.
Kiçä
High -- | Low -- °F
Precip. -- in
6:50 AM 8:41 PM
Waning Gibbous, 92% visible
Basım 29.97 in
Köriniwçenlik 10.0 mil
Bolıtlı Ayaz
İssilik 92 °F
Çıq noqtası 67 °F
Dımlıq 49%
Rainfall 0.00 in
Qar bieklege Not available.
UV 12 out of 12
Pollen 4.60 out of 12
Hawa Sífatı Not available.
Flu Activity Not available.
METAR KDNN 021755Z AUTO 00000KT 10SM CLR 31/15 A2997 RMK AO2

More Conditions Fewer Conditions

Basım 29.97 in
Köriniwçenlik 10.0 mil
Bolıtlı Ayaz
İssilik 92 °F
Çıq noqtası 67 °F
Dımlıq 49%
Rainfall 0.00 in
Qar bieklege Not available.
UV 12 out of 12
Pollen 4.60 out of 12
Hawa Sífatı Not available.
Flu Activity Not available.
METAR KDNN 021755Z AUTO 00000KT 10SM CLR 31/15 A2997 RMK AO2

More Conditions Fewer Conditions

10-Day Weather Forecast

×

Almanac

Kükbelem

Aug. 02, 2015 Rise Set
Anıñ çağı
Tormışlı qaranğı
Diñgezdä qarañğı
Küktä qarañğı
Ay
Kürenmäle yaqtı ozınlığı
Kön ozınlığı
Tomorrow will be .
, % of the Moon is Illuminated

Today's Extremes

State Highs State Lows

Community

WunderPhotos

Upload Photos

1,843,330 photos uploaded!

WunderBlogs® & News

Nearby

Hawa Sífatı

  Hawa Sífatı HS İndekse Pıçratqıç
Not available.

Qar terenligi

Station Depth Böyiklik

Earthquake Activity

Qala Distance Mag. Time & Date
Minimum magnitude displayed is 2.5.

Coastal Water Temperatures

Orın Cılılıq

Stations

Nearby Weather Stations

Station Location Cılılıq Cel köçi Çıq noqtası Dımlıq Cel Precip. Elev Yañartılıw Töri